Time;durP1;ratioP1;P1;durP2;ratioP2;P2;SDS_P1;SDS_P2;PMS_P1;PMS_P2;Temp;Humidity;BMP_temperature;BMP_pressure;BME280_temperature;BME280_humidity;BME280_pressure;Samples;Min_cycle;Max_cycle;Signal;HPM_P1;HPM_P2
2021/10/18 00:01:16;;;;;;;54.37;27.83;;;;;;;8.10;63.51;99403.45;2147230;83;21305;-79
2021/10/18 00:04:17;;;;;;;51.97;26.67;;;;;;;8.07;63.67;99413.34;2147650;82;20967;-81
2021/10/18 00:07:17;;;;;;;57.57;27.23;;;;;;;8.06;63.83;99415.47;2147132;82;20970;-77
2021/10/18 00:10:18;;;;;;;55.07;28.03;;;;;;;8.03;63.87;99411.89;2146727;83;21020;-77
2021/10/18 00:13:18;;;;;;;53.40;26.57;;;;;;;8.05;64.10;99412.41;2146896;83;20930;-79
2021/10/18 00:16:19;;;;;;;59.47;28.20;;;;;;;8.03;64.11;99404.98;2147028;83;20977;-80
2021/10/18 00:19:20;;;;;;;46.63;26.90;;;;;;;7.99;64.19;99403.12;2147099;82;20959;-79
2021/10/18 00:22:20;;;;;;;53.97;27.63;;;;;;;7.96;64.23;99401.73;2147198;82;21326;-81
2021/10/18 00:25:20;;;;;;;51.67;26.20;;;;;;;7.96;64.35;99399.13;2147273;82;20934;-80
2021/10/18 00:28:21;;;;;;;49.63;26.33;;;;;;;7.96;64.41;99400.42;2147183;82;20946;-80
2021/10/18 00:31:22;;;;;;;49.13;26.30;;;;;;;7.95;64.48;99401.27;2146916;83;20981;-81
2021/10/18 00:34:22;;;;;;;54.70;26.10;;;;;;;7.91;64.58;99401.59;2054794;87;20954;-80
2021/10/18 00:37:23;;;;;;;51.93;26.77;;;;;;;7.91;64.77;99396.80;2147823;82;20974;-80
2021/10/18 00:40:23;;;;;;;51.80;27.17;;;;;;;7.92;64.73;99387.75;2152458;83;21373;-80
2021/10/18 00:43:24;;;;;;;55.23;27.73;;;;;;;7.91;64.85;99394.20;2152452;83;20923;-82
2021/10/18 00:46:24;;;;;;;54.97;27.40;;;;;;;7.91;64.88;99394.20;2152449;83;20938;-81
2021/10/18 00:49:25;;;;;;;53.87;27.57;;;;;;;7.92;64.95;99389.47;2152420;83;20934;-79
2021/10/18 00:52:25;;;;;;;50.27;28.20;;;;;;;7.90;65.11;99391.14;2152762;83;20950;-81
2021/10/18 00:55:26;;;;;;;50.37;28.00;;;;;;;7.84;65.05;99390.95;2152633;83;20970;-80
2021/10/18 00:58:26;;;;;;;58.13;28.53;;;;;;;7.83;65.22;99383.98;2152062;83;20950;-80
2021/10/18 01:01:27;;;;;;;58.47;26.53;;;;;;;7.83;65.26;99378.38;2152064;83;20926;-80
2021/10/18 01:04:27;;;;;;;49.83;26.60;;;;;;;7.85;65.32;99381.90;2152226;83;20943;-83
2021/10/18 01:07:28;;;;;;;51.77;27.97;;;;;;;8.14;73.04;99378.88;2059548;87;20985;-83
2021/10/18 01:10:28;;;;;;;56.00;30.00;;;;;;;11.29;71.64;99374.36;2152150;82;21029;-82
2021/10/18 01:13:29;;;;;;;59.23;28.77;;;;;;;13.25;67.02;99373.21;2152416;83;21333;-83
2021/10/18 01:16:29;;;;;;;56.43;27.50;;;;;;;14.63;63.96;99369.39;2152394;83;20915;-84
2021/10/18 01:19:30;;;;;;;52.62;27.45;;;;;;;15.55;60.56;99374.42;2152538;83;20954;-83
2021/10/18 01:22:30;;;;;;;52.08;26.75;;;;;;;16.12;57.95;99373.12;2152666;83;20966;-82
2021/10/18 01:25:31;;;;;;;45.38;26.23;;;;;;;16.31;54.71;99377.91;2152384;83;20933;-83
2021/10/18 01:28:31;;;;;;;42.60;23.50;;;;;;;16.42;53.34;99378.75;2152237;83;21362;-81
2021/10/18 01:31:32;;;;;;;45.38;24.63;;;;;;;15.76;48.04;99380.62;2152496;83;21298;-81
2021/10/18 01:34:32;;;;;;;43.20;23.47;;;;;;;13.65;49.65;99381.42;2152775;83;20926;-79
2021/10/18 01:37:33;;;;;;;43.17;24.63;;;;;;;12.31;51.33;99386.04;2152333;82;20974;-79
2021/10/18 01:40:33;;;;;;;48.23;25.35;;;;;;;11.17;53.35;99388.06;2152511;83;20985;-80
2021/10/18 01:43:34;;;;;;;49.33;25.93;;;;;;;10.43;54.94;99387.06;2152334;83;20926;-79
2021/10/18 01:46:34;;;;;;;48.13;25.37;;;;;;;9.85;56.55;99386.13;2152509;83;21317;-80
2021/10/18 01:49:35;;;;;;;51.67;27.00;;;;;;;9.47;57.44;99389.09;2152673;83;21321;-80
2021/10/18 01:52:35;;;;;;;47.10;25.30;;;;;;;9.15;59.04;99398.70;2152658;83;20942;-80
2021/10/18 01:55:36;;;;;;;50.17;26.57;;;;;;;8.79;59.68;99399.47;2152525;83;20969;-80
2021/10/18 01:58:36;;;;;;;49.03;27.00;;;;;;;8.59;60.66;99392.80;2152309;83;20974;-81
2021/10/18 02:01:37;;;;;;;50.07;28.13;;;;;;;8.48;61.39;99392.49;2152354;83;20993;-78
2021/10/18 02:04:37;;;;;;;49.10;26.20;;;;;;;9.79;68.33;99391.20;2152194;83;20922;-78
2021/10/18 02:07:38;;;;;;;48.70;25.47;;;;;;;10.42;60.55;99392.25;2152135;83;20994;-79
2021/10/18 02:10:38;;;;;;;48.40;25.87;;;;;;;9.82;60.10;99395.19;2152022;83;21021;-78
2021/10/18 02:13:39;;;;;;;45.67;24.77;;;;;;;9.30;60.90;99391.28;2152282;83;21327;-80
2021/10/18 02:16:39;;;;;;;39.37;23.70;;;;;;;8.99;62.13;99390.90;2152202;83;20970;-79
2021/10/18 02:19:40;;;;;;;44.53;24.47;;;;;;;8.79;62.97;99394.69;2152385;83;20962;-79
2021/10/18 02:22:40;;;;;;;43.03;24.30;;;;;;;8.62;63.63;99391.58;2152302;83;20967;-79
2021/10/18 02:25:41;;;;;;;47.57;23.97;;;;;;;8.47;64.33;99387.24;2152236;83;20930;-80
2021/10/18 02:28:41;;;;;;;41.37;24.70;;;;;;;8.35;64.97;99390.38;2152142;83;20934;-79
2021/10/18 02:31:42;;;;;;;43.10;23.40;;;;;;;8.23;65.50;99391.28;2152204;83;20903;-79
2021/10/18 02:34:42;;;;;;;42.77;24.93;;;;;;;8.18;66.09;99395.46;2152297;83;21271;-79
2021/10/18 02:37:43;;;;;;;48.90;24.57;;;;;;;8.10;66.57;99393.93;2152279;82;20955;-79
2021/10/18 02:40:43;;;;;;;45.23;25.20;;;;;;;8.06;66.78;99389.47;2152250;83;20978;-79
2021/10/18 02:43:44;;;;;;;38.97;21.50;;;;;;;8.02;67.17;99391.52;2152360;83;20937;-80
2021/10/18 02:46:46;;;;;;;45.50;24.17;;;;;;;8.00;68.15;99398.39;2151794;83;21005;-83
2021/10/18 02:49:47;;;;;;;42.40;23.60;;;;;;;8.08;70.07;99397.32;2059440;86;21002;-82
2021/10/18 02:52:50;;;;;;;39.10;21.73;;;;;;;8.78;70.58;99396.83;2152273;82;21006;-83
2021/10/18 02:55:50;;;;;;;43.70;24.43;;;;;;;9.26;70.19;99393.34;2059681;87;20961;-84
2021/10/18 02:58:51;;;;;;;41.37;23.13;;;;;;;9.73;69.47;99381.94;2152417;82;20930;-82
2021/10/18 03:01:51;;;;;;;38.43;22.63;;;;;;;10.08;68.13;99389.27;2152310;83;21021;-80
2021/10/18 03:04:52;;;;;;;41.50;23.27;;;;;;;9.90;65.75;99389.73;2152165;83;20898;-80
2021/10/18 03:07:52;;;;;;;40.17;24.33;;;;;;;9.47;65.45;99396.48;2152317;83;21341;-82
2021/10/18 03:10:57;;;;;;;40.63;22.43;;;;;;;9.15;65.85;99396.09;2152452;83;21405;-82
2021/10/18 03:13:57;;;;;;;39.78;21.93;;;;;;;8.91;66.49;99393.30;2152380;83;20938;-80
2021/10/18 03:16:58;;;;;;;40.47;23.47;;;;;;;8.65;67.21;99395.57;2152314;83;20950;-81
2021/10/18 03:19:58;;;;;;;40.80;24.13;;;;;;;8.50;67.78;99400.34;2152573;83;20930;-80
2021/10/18 03:22:59;;;;;;;44.33;26.23;;;;;;;8.40;68.15;99400.49;2152188;83;21334;-81
2021/10/18 03:25:59;;;;;;;39.07;23.57;;;;;;;8.35;69.08;99405.09;2152471;83;21337;-81
2021/10/18 03:29:00;;;;;;;38.03;23.00;;;;;;;8.22;69.10;99407.72;2152139;83;20997;-82
2021/10/18 03:32:00;;;;;;;45.07;25.37;;;;;;;8.13;69.42;99407.44;2059166;87;20976;-82
2021/10/18 03:35:01;;;;;;;41.93;24.67;;;;;;;8.03;70.04;99411.48;2152033;82;20922;-80
2021/10/18 03:38:01;;;;;;;41.73;23.63;;;;;;;7.92;70.63;99407.25;2152299;82;20962;-81
2021/10/18 03:41:02;;;;;;;40.97;25.97;;;;;;;7.88;70.65;99410.59;2151979;83;20977;-82
2021/10/18 03:44:02;;;;;;;39.83;23.37;;;;;;;7.86;71.01;99413.97;2152293;83;20933;-82
2021/10/18 03:47:03;;;;;;;41.30;24.60;;;;;;;7.84;71.39;99410.45;2151612;83;21373;-82
2021/10/18 03:50:03;;;;;;;42.50;25.83;;;;;;;7.81;71.70;99416.84;2151246;83;20946;-81
2021/10/18 03:53:04;;;;;;;42.53;25.60;;;;;;;7.77;72.41;99416.25;2151341;83;21033;-82
2021/10/18 03:56:04;;;;;;;41.57;26.57;;;;;;;7.69;72.26;99423.80;2152171;83;20962;-83
2021/10/18 03:59:05;;;;;;;43.33;25.97;;;;;;;7.63;72.73;99421.00;2152256;83;20902;-82
2021/10/18 04:02:06;;;;;;;43.50;26.67;;;;;;;7.62;72.91;99420.12;2151221;83;20930;-81
2021/10/18 04:05:07;;;;;;;50.17;29.70;;;;;;;7.64;73.21;99421.05;2150776;83;21310;-82
2021/10/18 04:08:07;;;;;;;39.60;24.67;;;;;;;7.63;73.40;99418.41;2150747;83;21401;-82
2021/10/18 04:11:08;;;;;;;37.57;23.80;;;;;;;7.63;73.48;99425.78;2150811;83;20993;-83
2021/10/18 04:14:09;;;;;;;41.37;26.03;;;;;;;7.58;73.94;99427.34;2058094;87;20958;-81
2021/10/18 04:17:09;;;;;;;47.20;26.63;;;;;;;7.49;73.92;99427.45;2151416;83;20942;-81
2021/10/18 04:20:10;;;;;;;45.50;27.93;;;;;;;7.49;74.35;99431.36;2151780;83;21481;-80
2021/10/18 04:23:11;;;;;;;42.23;27.47;;;;;;;7.48;74.50;99433.48;2150601;83;20946;-82
2021/10/18 04:26:11;;;;;;;51.40;29.40;;;;;;;7.48;75.13;99431.77;2150898;83;20942;-81
2021/10/18 04:29:12;;;;;;;44.53;27.73;;;;;;;7.55;75.11;99435.04;2150366;83;20973;-82
2021/10/18 04:32:12;;;;;;;53.67;29.60;;;;;;;7.56;74.93;99433.33;2150789;83;21629;-81
2021/10/18 04:35:13;;;;;;;48.93;27.67;;;;;;;7.54;74.97;99434.58;2150778;83;21417;-83
2021/10/18 04:38:14;;;;;;;49.43;31.13;;;;;;;7.59;75.35;99434.72;2062871;85;21040;-82
2021/10/18 04:41:14;;;;;;;48.47;32.03;;;;;;;7.56;75.52;99442.00;2094688;85;21081;-82
2021/10/18 04:44:15;;;;;;;49.43;30.07;;;;;;;7.54;76.26;99439.77;2094420;85;20950;-82
2021/10/18 04:47:15;;;;;;;49.97;32.10;;;;;;;7.50;75.63;99437.90;2093915;85;20987;-80
2021/10/18 04:50:16;;;;;;;52.67;31.83;;;;;;;7.48;75.85;99440.86;2093650;85;20989;-82
2021/10/18 04:53:16;;;;;;;52.47;32.87;;;;;;;7.49;75.98;99445.64;2093511;85;21361;-82
2021/10/18 04:56:17;;;;;;;50.60;32.20;;;;;;;7.50;76.32;99440.91;2094106;85;20929;-80
2021/10/18 04:59:17;;;;;;;48.50;29.80;;;;;;;7.45;76.41;99443.77;2094374;85;20985;-80
2021/10/18 05:02:18;;;;;;;48.30;32.00;;;;;;;7.43;76.69;99442.84;2093447;85;21013;-79
2021/10/18 05:05:19;;;;;;;57.67;33.93;;;;;;;7.41;76.65;99453.18;2093550;85;21653;-80
2021/10/18 05:08:19;;;;;;;51.00;32.83;;;;;;;7.46;77.04;99453.33;2093506;85;21005;-79
2021/10/18 05:11:20;;;;;;;60.80;35.73;;;;;;;7.52;77.37;99453.53;2093973;85;20997;-78
2021/10/18 05:14:20;;;;;;;66.33;39.97;;;;;;;7.56;77.05;99461.48;2094083;85;20944;-78
2021/10/18 05:17:21;;;;;;;58.23;32.60;;;;;;;7.56;77.30;99467.98;2094891;85;20953;-80
2021/10/18 05:20:21;;;;;;;58.27;34.27;;;;;;;7.49;77.48;99474.22;2093923;85;20937;-79
2021/10/18 05:23:22;;;;;;;56.50;33.83;;;;;;;7.42;77.74;99474.84;2094475;85;20922;-81
2021/10/18 05:26:22;;;;;;;57.20;36.03;;;;;;;7.39;78.11;99489.91;2093998;85;21345;-79
2021/10/18 05:29:23;;;;;;;53.07;34.77;;;;;;;7.39;78.11;99492.91;2094357;85;20984;-80
2021/10/18 05:32:25;;;;;;;58.40;33.73;;;;;;;7.35;78.48;99491.92;2093991;85;21017;-79
2021/10/18 05:35:25;;;;;;;51.67;32.13;;;;;;;7.32;78.82;99492.70;2094613;85;20960;-80
2021/10/18 05:38:26;;;;;;;51.43;30.13;;;;;;;7.34;78.97;99499.25;2089971;85;21369;-80
2021/10/18 05:41:26;;;;;;;51.00;32.47;;;;;;;7.33;79.05;99503.97;2145655;83;21036;-81
2021/10/18 05:44:27;;;;;;;50.23;31.50;;;;;;;7.33;79.69;99510.47;2146017;83;20973;-79
2021/10/18 05:47:27;;;;;;;51.30;33.63;;;;;;;7.31;79.94;99512.13;2144972;82;20998;-80
2021/10/18 05:50:28;;;;;;;62.87;38.30;;;;;;;7.31;80.02;99511.71;2146303;83;21581;-80
2021/10/18 05:53:28;;;;;;;61.47;38.33;;;;;;;7.33;79.55;99516.95;2145575;83;20950;-80
2021/10/18 05:56:29;;;;;;;65.30;38.93;;;;;;;7.41;79.63;99519.41;2145121;83;20945;-79
2021/10/18 05:59:29;;;;;;;66.47;38.30;;;;;;;7.44;79.98;99527.31;2145835;82;20938;-78
2021/10/18 06:02:30;;;;;;;52.67;34.10;;;;;;;7.39;80.30;99534.05;2053091;85;20946;-79
2021/10/18 06:05:30;;;;;;;66.73;39.73;;;;;;;7.34;81.55;99532.59;2145694;82;20922;-79
2021/10/18 06:08:31;;;;;;;66.63;41.00;;;;;;;7.33;80.43;99536.44;2145545;83;21017;-79
2021/10/18 06:11:31;;;;;;;59.13;36.97;;;;;;;7.38;80.57;99538.78;2145782;82;20978;-80
2021/10/18 06:14:32;;;;;;;61.23;37.03;;;;;;;7.41;81.06;99537.59;2145819;82;20966;-79
2021/10/18 06:17:32;;;;;;;49.70;33.80;;;;;;;7.44;80.90;99547.20;2145304;82;20915;-80
2021/10/18 06:20:33;;;;;;;55.57;33.80;;;;;;;7.43;81.15;99554.53;2145767;83;21318;-79
2021/10/18 06:23:33;;;;;;;57.27;34.83;;;;;;;7.42;81.38;99552.34;2145520;83;21307;-81
2021/10/18 06:26:35;;;;;;;60.40;37.17;;;;;;;7.39;81.15;99556.55;2145977;83;20985;-82
2021/10/18 06:29:36;;;;;;;139.87;91.97;;;;;;;7.39;82.08;99568.23;2146380;83;20928;-83
2021/10/18 06:32:36;;;;;;;91.63;57.33;;;;;;;7.50;85.81;99564.30;2053451;87;20991;-82
2021/10/18 06:35:37;;;;;;;113.40;79.60;;;;;;;9.61;90.32;99565.41;2146293;82;21055;-80
2021/10/18 06:38:38;;;;;;;69.73;49.00;;;;;;;11.19;79.90;99564.05;2149178;82;21092;-81
2021/10/18 06:41:39;;;;;;;45.53;33.13;;;;;;;10.52;75.91;99561.26;2180669;82;20981;-81
2021/10/18 06:44:42;;;;;;;47.83;31.20;;;;;;;9.88;75.07;99571.34;2180323;82;20933;-79
2021/10/18 06:47:41;;;;;;;47.57;32.60;;;;;;;9.38;75.81;99584.28;2179981;82;21080;-81
2021/10/18 06:50:42;;;;;;;46.20;31.37;;;;;;;8.97;76.53;99586.98;2180407;82;20953;-80
2021/10/18 06:53:43;;;;;;;40.57;28.43;;;;;;;8.60;77.34;99588.43;2180397;82;20925;-82
2021/10/18 06:56:46;;;;;;;42.73;29.60;;;;;;;8.43;77.97;99593.10;2099548;85;20929;-82
2021/10/18 06:59:47;;;;;;;44.47;29.10;;;;;;;8.35;78.57;99594.98;2129084;84;21028;-79
2021/10/18 07:02:47;;;;;;;41.87;26.73;;;;;;;8.23;79.21;99597.63;2099804;85;20956;-80
2021/10/18 07:05:48;;;;;;;39.53;26.30;;;;;;;8.14;79.37;99602.94;2129151;84;20961;-82
2021/10/18 07:08:49;;;;;;;38.17;26.00;;;;;;;8.03;79.73;99609.08;2100104;85;20993;-82
2021/10/18 07:11:49;;;;;;;41.07;28.13;;;;;;;8.02;80.01;99603.41;2129300;84;21060;-81
2021/10/18 07:14:50;;;;;;;44.30;28.37;;;;;;;8.02;80.82;99610.33;2100269;85;21056;-80
2021/10/18 07:17:51;;;;;;;40.07;27.47;;;;;;;7.98;80.62;99617.13;2129232;84;20950;-82
2021/10/18 07:20:52;;;;;;;46.77;29.30;;;;;;;8.01;81.83;99615.06;2099838;85;20937;-81
2021/10/18 07:23:55;;;;;;;42.60;27.33;;;;;;;7.96;81.04;99614.48;2129126;84;20952;-80
2021/10/18 07:26:55;;;;;;;40.47;28.57;;;;;;;8.02;82.40;99613.81;2099428;85;20964;-82
2021/10/18 07:29:56;;;;;;;40.13;27.07;;;;;;;7.98;81.73;99624.94;2128804;84;20957;-80
2021/10/18 07:32:57;;;;;;;40.63;26.37;;;;;;;7.97;82.21;99623.16;2099274;85;21690;-80
2021/10/18 07:36:06;;;;;;;51.10;28.07;;;;;;;8.01;82.58;99631.54;2128595;84;20941;-81
2021/10/18 07:39:05;;;;;;;45.87;27.63;;;;;;;8.01;83.23;99631.54;2097679;85;21051;-79
2021/10/18 07:42:08;;;;;;;46.63;29.20;;;;;;;8.01;83.12;99625.45;2128970;84;20989;-83
2021/10/18 07:45:08;;;;;;;47.03;28.10;;;;;;;8.14;83.27;99640.23;2099518;85;20965;-81
2021/10/18 07:48:09;;;;;;;54.83;31.70;;;;;;;8.14;83.27;99640.23;2129154;84;21345;-80
2021/10/18 07:51:12;;;;;;;49.53;30.43;;;;;;;8.20;83.60;99635.23;2099496;85;20952;-82
2021/10/18 07:54:13;;;;;;;59.10;33.00;;;;;;;8.21;83.48;99638.72;2129542;84;20975;-81
2021/10/18 07:57:14;;;;;;;49.47;31.33;;;;;;;8.25;83.36;99645.79;2100297;85;20949;-81
2021/10/18 08:00:15;;;;;;;53.27;30.63;;;;;;;8.29;83.31;99640.74;2129963;84;20946;-81
2021/10/18 08:03:15;;;;;;;53.87;29.13;;;;;;;8.36;83.13;99638.38;2100272;85;21002;-81
2021/10/18 08:06:16;;;;;;;640.50;507.17;;;;;;;8.41;83.76;99635.09;2129502;84;20954;-82
2021/10/18 08:09:16;;;;;;;222.13;157.40;;;;;;;9.21;88.87;99635.48;2100393;85;20969;-80
2021/10/18 08:12:17;;;;;;;70.97;43.50;;;;;;;10.66;86.51;99635.56;2129596;84;21420;-81
2021/10/18 08:15:18;;;;;;;50.27;27.63;;;;;;;10.52;79.77;99637.84;2100066;85;20969;-81
2021/10/18 08:18:18;;;;;;;46.80;28.93;;;;;;;9.94;78.89;99636.70;2129902;84;20986;-81
2021/10/18 08:21:19;;;;;;;43.93;28.17;;;;;;;9.58;79.48;99642.67;2100801;85;21325;-81
2021/10/18 08:24:19;;;;;;;42.87;26.97;;;;;;;9.38;80.13;99645.09;2131185;84;21334;-79
2021/10/18 08:27:20;;;;;;;34.67;22.43;;;;;;;9.21;81.03;99651.11;2101007;85;20977;-81
2021/10/18 08:30:20;;;;;;;41.83;23.73;;;;;;;9.08;81.38;99658.09;2130472;84;20997;-84
2021/10/18 08:33:21;;;;;;;39.87;23.40;;;;;;;8.94;82.19;99655.06;2099616;85;21024;-80
2021/10/18 08:36:21;;;;;;;39.43;23.40;;;;;;;8.92;82.29;99656.73;2129788;84;21388;-80
2021/10/18 08:40:16;;;;;;;35.83;23.70;;;;;;;8.98;82.35;99655.16;2093374;85;21774;-80
2021/10/18 08:42:42;;;;;;;36.63;23.43;;;;;;;9.05;82.32;99654.51;2142944;83;21048;-82
2021/10/18 08:45:36;;;;;;;42.33;25.50;;;;;;;9.09;82.68;99654.64;2144871;83;21033;-80
2021/10/18 08:48:36;;;;;;;44.20;26.93;;;;;;;9.12;82.60;99657.77;2145979;83;21365;-80
2021/10/18 08:51:37;;;;;;;506.40;373.80;;;;;;;9.20;82.49;99648.45;2053394;87;20998;-83
2021/10/18 08:54:38;;;;;;;423.70;321.07;;;;;;;10.79;93.48;99650.67;2146062;82;20954;-82
2021/10/18 08:57:38;;;;;;;40.57;29.13;;;;;;;13.95;85.10;99642.83;2053725;87;20959;-80
2021/10/18 09:00:39;;;;;;;34.27;22.90;;;;;;;13.56;72.59;99647.58;2145922;82;20929;-80
2021/10/18 09:03:39;;;;;;;31.47;21.73;;;;;;;12.40;72.11;99658.45;2053354;87;21715;-81
2021/10/18 09:06:40;;;;;;;34.47;23.03;;;;;;;11.52;73.52;99650.58;2145749;82;21145;-80
2021/10/18 09:09:40;;;;;;;35.53;22.17;;;;;;;11.12;74.82;99664.94;2145947;82;20938;-80
2021/10/18 09:12:41;;;;;;;27.00;20.10;;;;;;;10.94;75.39;99663.21;2146211;83;21012;-80
2021/10/18 09:15:42;;;;;;;28.47;18.83;;;;;;;10.65;76.28;99670.35;2053665;87;21428;-80
2021/10/18 09:18:42;;;;;;;31.17;20.03;;;;;;;10.42;77.22;99679.34;2145612;82;20950;-79
2021/10/18 09:21:43;;;;;;;26.83;19.10;;;;;;;10.24;77.59;99683.63;2145502;83;20945;-79
2021/10/18 09:24:44;;;;;;;191.77;142.10;;;;;;;10.07;78.98;99693.58;2145150;83;20990;-79
2021/10/18 09:27:44;;;;;;;27.73;20.03;;;;;;;10.05;83.66;99685.24;2145541;83;21302;-81
2021/10/18 09:30:45;;;;;;;78.37;52.73;;;;;;;10.19;79.01;99680.86;2145920;82;20965;-80
2021/10/18 09:33:56;;;;;;;56.67;41.27;;;;;;;10.13;82.76;99688.52;2146638;83;20947;-81
2021/10/18 09:36:51;;;;;;;58.70;41.80;;;;;;;11.84;89.41;99684.84;2145248;83;21303;-80
2021/10/18 09:39:51;;;;;;;60.37;39.87;;;;;;;12.82;81.15;99686.22;2147576;82;21018;-80
2021/10/18 09:42:52;;;;;;;32.67;23.60;;;;;;;13.49;77.81;99687.70;2151215;83;20998;-81
2021/10/18 09:45:52;;;;;;;35.92;25.70;;;;;;;14.73;78.23;99689.59;2151079;83;21282;-81
2021/10/18 10:51:45;;;;;;;34.87;22.77;;;;;;;9.87;79.36;99703.87;2151003;83;21435;-79
2021/10/18 10:54:38;;;;;;;33.77;21.40;;;;;;;9.85;80.23;99704.25;2150106;82;20986;-79
2021/10/18 10:57:39;;;;;;;30.90;20.97;;;;;;;9.82;80.01;99706.78;2058342;87;21042;-80
2021/10/18 11:00:39;;;;;;;35.83;22.93;;;;;;;9.81;80.26;99706.31;2151196;83;21147;-79
2021/10/18 11:03:40;;;;;;;35.93;23.80;;;;;;;9.80;80.73;99704.55;2150605;83;20974;-78
2021/10/18 11:06:41;;;;;;;27.07;18.77;;;;;;;9.80;80.40;99707.16;2059029;87;20990;-80
2021/10/18 11:09:42;;;;;;;26.97;19.07;;;;;;;9.75;81.43;99708.33;2151629;83;21005;-79
2021/10/18 11:12:42;;;;;;;27.33;21.20;;;;;;;9.72;81.52;99700.83;2151348;83;21081;-80
2021/10/18 11:15:43;;;;;;;26.30;20.50;;;;;;;9.70;81.97;99701.21;2151505;83;20942;-80
2021/10/18 11:18:43;;;;;;;33.37;23.20;;;;;;;9.78;81.36;99697.09;2151278;83;20959;-79
2021/10/18 11:21:44;;;;;;;34.67;24.17;;;;;;;9.81;81.74;99697.19;2151362;83;20949;-80
2021/10/18 11:24:45;;;;;;;38.03;24.37;;;;;;;9.81;81.36;99691.55;2058404;87;20930;-79
2021/10/18 11:27:45;;;;;;;37.17;23.33;;;;;;;9.92;81.48;99684.03;2150803;82;20950;-79
2021/10/18 11:30:45;;;;;;;40.50;26.40;;;;;;;9.92;81.92;99676.62;2150982;83;20918;-82
2021/10/18 11:33:46;;;;;;;45.37;26.30;;;;;;;9.91;81.56;99677.05;2151428;83;20934;-80
2021/10/18 11:36:46;;;;;;;48.43;27.90;;;;;;;9.93;81.34;99682.30;2151736;83;20934;-80
2021/10/18 11:39:47;;;;;;;38.93;25.60;;;;;;;9.97;81.50;99686.34;2151249;82;20970;-80
2021/10/18 11:42:48;;;;;;;42.37;25.73;;;;;;;10.04;81.55;99693.91;2151055;83;21048;-79
2021/10/18 11:45:48;;;;;;;40.07;28.03;;;;;;;10.04;81.44;99697.41;2058155;86;20996;-81
2021/10/18 11:48:49;;;;;;;41.37;25.43;;;;;;;10.01;81.74;99696.44;2152183;82;20942;-81
2021/10/18 11:51:49;;;;;;;38.30;24.97;;;;;;;9.95;81.61;99693.23;2151268;83;20970;-82
2021/10/18 11:54:50;;;;;;;39.37;24.80;;;;;;;9.88;81.90;99696.09;2151066;83;20946;-82
2021/10/18 11:57:50;;;;;;;44.47;28.90;;;;;;;9.85;81.79;99701.65;2151901;83;20966;-81
2021/10/18 12:00:51;;;;;;;34.73;23.53;;;;;;;9.83;82.06;99702.02;2151775;83;21283;-82
2021/10/18 12:03:53;;;;;;;39.73;24.67;;;;;;;9.76;82.34;99706.59;2150979;83;20942;-82
2021/10/18 12:06:54;;;;;;;35.80;23.80;;;;;;;9.65;82.69;99703.69;2151215;83;20981;-81
2021/10/18 12:09:54;;;;;;;44.47;27.00;;;;;;;9.60;83.38;99709.60;2150753;83;20902;-81
2021/10/18 12:12:55;;;;;;;45.40;27.00;;;;;;;10.45;92.09;99705.52;2150223;83;20996;-81
2021/10/18 12:15:55;;;;;;;46.53;29.00;;;;;;;12.75;89.67;99694.41;2150824;83;20930;-81
2021/10/18 12:18:55;;;;;;;42.47;29.93;;;;;;;13.91;78.81;99693.96;2149392;83;20981;-77
2021/10/18 12:21:56;;;;;;;51.68;33.10;;;;;;;14.32;73.00;99689.16;2149847;83;21360;-81
2021/10/18 12:24:57;;;;;;;53.45;35.80;;;;;;;13.38;72.26;99696.31;2150635;83;21306;-81
2021/10/18 12:28:00;;;;;;;47.08;31.17;;;;;;;13.28;76.14;99691.80;2150293;83;20965;-82
2021/10/18 12:31:00;;;;;;;41.23;27.95;;;;;;;14.17;75.08;99696.88;2150835;82;21320;-81
2021/10/18 12:34:01;;;;;;;40.25;27.15;;;;;;;14.69;71.58;99693.48;2057613;86;20985;-81
2021/10/18 12:37:06;;;;;;;40.58;28.62;;;;;;;14.64;71.28;99687.75;2131363;83;20982;-82
2021/10/18 12:40:07;;;;;;;44.88;30.30;;;;;;;15.51;72.24;99695.42;2151129;82;20953;-83
2021/10/18 12:43:07;;;;;;;36.15;24.35;;;;;;;16.22;69.49;99693.14;2150277;83;21009;-79
2021/10/18 12:46:08;;;;;;;38.20;26.85;;;;;;;16.12;63.19;99693.11;2150341;83;20944;-81
2021/10/18 12:49:08;;;;;;;36.45;25.08;;;;;;;14.78;68.17;99697.54;2150758;83;21148;-81
2021/10/18 12:52:09;;;;;;;40.20;28.45;;;;;;;15.64;69.78;99693.80;2151837;83;20933;-80
2021/10/18 12:55:10;;;;;;;37.55;26.33;;;;;;;15.95;65.67;99696.13;2150495;83;20930;-81
2021/10/18 12:58:10;;;;;;;39.63;25.85;;;;;;;16.03;65.76;99687.81;2150445;83;20949;-83
2021/10/18 13:01:11;;;;;;;36.70;26.02;;;;;;;16.04;63.24;99685.19;2150420;83;20946;-82
2021/10/18 13:04:11;;;;;;;31.87;23.27;;;;;;;16.62;66.63;99681.82;2150079;83;21124;-82
2021/10/18 13:07:12;;;;;;;29.52;21.70;;;;;;;17.01;60.10;99687.13;2150510;83;20942;-81
2021/10/18 13:10:12;;;;;;;33.70;23.32;;;;;;;16.88;61.88;99684.94;2150030;83;20974;-81
2021/10/18 13:13:13;;;;;;;29.40;21.75;;;;;;;15.82;61.99;99698.71;2150050;83;21415;-81
2021/10/18 13:16:13;;;;;;;28.25;20.82;;;;;;;15.45;64.61;99695.39;2150512;83;20993;-83
2021/10/18 13:19:14;;;;;;;28.12;20.00;;;;;;;16.21;63.74;99690.06;2150114;83;20954;-79
2021/10/18 13:22:14;;;;;;;30.50;21.93;;;;;;;16.92;64.47;99688.45;2150494;83;20942;-80
2021/10/18 13:25:15;;;;;;;30.43;22.20;;;;;;;16.90;61.32;99692.84;2150582;83;20977;-82
2021/10/18 13:28:16;;;;;;;29.90;21.68;;;;;;;16.74;60.66;99699.88;2149748;83;20997;-80
2021/10/18 13:31:16;;;;;;;35.20;24.12;;;;;;;16.37;61.78;99698.88;2150286;83;20914;-81
2021/10/18 13:34:17;;;;;;;33.10;24.65;;;;;;;16.42;60.14;99702.41;2150915;83;21330;-80
2021/10/18 13:37:17;;;;;;;33.80;24.47;;;;;;;14.99;60.52;99704.28;2150871;83;20918;-80
2021/10/18 13:40:18;;;;;;;34.60;24.32;;;;;;;13.51;63.83;99712.22;2150740;82;20973;-81
2021/10/18 13:43:18;;;;;;;38.20;26.00;;;;;;;12.53;66.65;99711.03;2150622;83;20997;-79
2021/10/18 13:46:19;;;;;;;36.58;26.45;;;;;;;11.93;68.61;99718.15;2151094;83;20972;-78
2021/10/18 13:49:19;;;;;;;37.30;24.85;;;;;;;11.53;69.76;99713.78;2057847;87;20976;-80
2021/10/18 13:52:20;;;;;;;38.60;26.45;;;;;;;11.25;71.69;99720.98;2151058;83;20902;-80
2021/10/18 13:55:20;;;;;;;40.40;27.30;;;;;;;10.98;72.42;99725.55;2151723;83;21279;-79
2021/10/18 13:58:21;;;;;;;40.47;29.17;;;;;;;10.76;73.30;99732.86;2059039;87;21005;-80
2021/10/18 14:01:22;;;;;;;43.28;30.50;;;;;;;10.63;74.12;99734.70;2151844;82;20938;-80
2021/10/18 14:04:23;;;;;;;43.10;29.57;;;;;;;10.48;76.23;99726.48;2058607;87;21010;-79
2021/10/18 14:07:23;;;;;;;47.38;32.83;;;;;;;10.36;75.54;99724.81;2151935;82;21392;-80
2021/10/18 14:10:24;;;;;;;49.53;33.27;;;;;;;10.28;77.05;99725.92;2151834;83;20966;-80
2021/10/18 14:13:24;;;;;;;51.53;33.23;;;;;;;10.18;77.90;99728.66;2151044;83;21013;-78
2021/10/18 14:16:25;;;;;;;44.97;28.77;;;;;;;10.08;78.76;99733.17;2150628;83;20961;-80
2021/10/18 14:19:26;;;;;;;55.50;33.03;;;;;;;10.00;79.69;99737.28;2150776;83;20914;-80
2021/10/18 14:22:26;;;;;;;81.03;40.70;;;;;;;9.91;78.84;99737.02;2150866;83;20942;-81
2021/10/18 14:25:29;;;;;;;70.17;37.10;;;;;;;9.86;80.79;99741.23;2151182;83;21382;-79
2021/10/18 14:28:29;;;;;;;110.07;73.77;;;;;;;9.81;81.22;99737.60;2151669;83;21401;-82
2021/10/18 14:31:30;;;;;;;97.17;55.73;;;;;;;10.32;87.71;99741.23;2152468;83;20934;-78
2021/10/18 14:34:30;;;;;;;64.07;37.37;;;;;;;11.70;78.76;99735.52;2059301;87;20966;-80
2021/10/18 14:37:31;;;;;;;62.30;37.80;;;;;;;11.31;76.88;99738.14;2152057;83;20919;-80
2021/10/18 14:40:32;;;;;;;67.67;42.23;;;;;;;10.95;77.06;99738.12;2153552;82;21278;-81
2021/10/18 14:43:32;;;;;;;60.60;37.03;;;;;;;10.71;78.12;99738.39;2100692;85;21060;-80
2021/10/18 14:46:33;;;;;;;59.97;39.80;;;;;;;10.51;78.58;99746.14;2130286;84;21309;-80
2021/10/18 14:49:33;;;;;;;54.87;35.67;;;;;;;10.37;79.21;99746.16;2100161;85;20980;-80
2021/10/18 14:52:34;;;;;;;57.10;37.33;;;;;;;10.31;79.77;99741.66;2130104;84;20953;-80
2021/10/18 14:55:39;;;;;;;58.53;38.03;;;;;;;10.19;79.72;99746.09;2100372;85;20930;-80
2021/10/18 14:58:37;;;;;;;67.53;41.97;;;;;;;10.13;81.20;99749.83;2129318;83;21184;-80